Time;durP1;ratioP1;P1;durP2;ratioP2;P2;SDS_P1;SDS_P2;PMS_P1;PMS_P2;Temp;Humidity;BMP_temperature;BMP_pressure;BME280_temperature;BME280_humidity;BME280_pressure;Samples;Min_cycle;Max_cycle;Signal;HPM_P1;HPM_P2
2023/11/25 00:01:22;;;;;;;17.40;8.77;;;;;;;3.99;88.57;101846.09;5040669;28;20084;-46
2023/11/25 00:03:49;;;;;;;21.85;8.77;;;;;;;3.96;88.47;101843.91;5025866;28;20053;-46
2023/11/25 00:06:20;;;;;;;24.08;9.30;;;;;;;3.94;88.79;101851.56;5035098;28;20157;-46
2023/11/25 00:08:48;;;;;;;19.10;9.30;;;;;;;3.94;88.87;101850.75;5040789;28;20072;-45
2023/11/25 00:11:16;;;;;;;28.38;10.95;;;;;;;3.91;88.56;101838.41;5046786;28;20041;-45
2023/11/25 00:13:55;;;;;;;20.42;8.02;;;;;;;3.87;88.98;101844.69;5047055;28;20057;-46
2023/11/25 00:16:23;;;;;;;34.70;11.75;;;;;;;3.84;89.18;101832.38;5046513;28;20052;-49
2023/11/25 00:18:51;;;;;;;18.35;8.85;;;;;;;3.82;89.16;101834.56;5046764;28;20052;-45
2023/11/25 00:21:18;;;;;;;28.02;9.32;;;;;;;3.80;89.03;101831.28;5047325;28;20038;-45
2023/11/25 00:23:47;;;;;;;26.30;9.77;;;;;;;3.79;88.99;101832.38;5039207;28;20041;-47
2023/11/25 00:26:14;;;;;;;20.30;8.15;;;;;;;3.77;88.74;101817.31;5047218;28;20057;-46
2023/11/25 00:28:41;;;;;;;21.00;8.15;;;;;;;3.75;88.94;101819.50;5046979;28;20051;-45
2023/11/25 00:31:09;;;;;;;25.38;9.23;;;;;;;3.73;89.28;101817.06;5045580;28;20473;-46
2023/11/25 00:33:36;;;;;;;22.20;9.48;;;;;;;3.67;89.20;101810.75;5046819;28;20037;-45
2023/11/25 00:36:05;;;;;;;27.55;9.05;;;;;;;3.66;88.95;101833.75;5046282;28;20048;-46
2023/11/25 00:38:33;;;;;;;23.17;8.98;;;;;;;3.67;89.14;101818.16;5047097;28;20052;-45
2023/11/25 00:41:00;;;;;;;15.85;7.38;;;;;;;3.69;89.03;101821.44;5046039;28;20519;-46
2023/11/25 00:43:27;;;;;;;17.65;7.32;;;;;;;3.69;89.11;101816.78;5047042;28;20372;-47
2023/11/25 00:45:55;;;;;;;18.20;8.18;;;;;;;3.69;88.97;101811.28;5046245;28;20616;-47
2023/11/25 00:48:22;;;;;;;14.05;7.20;;;;;;;3.64;88.84;101816.78;5047152;28;20068;-46
2023/11/25 00:50:51;;;;;;;21.85;7.70;;;;;;;3.62;88.78;101815.41;5046803;28;20494;-46
2023/11/25 00:53:18;;;;;;;17.38;6.78;;;;;;;3.62;88.86;101816.22;5047072;28;20052;-46
2023/11/25 00:55:46;;;;;;;13.70;7.70;;;;;;;3.60;88.64;101801.19;5046923;28;20499;-46
2023/11/25 00:58:13;;;;;;;24.92;8.48;;;;;;;3.54;89.07;101802.25;5046481;28;20059;-46
2023/11/25 01:00:41;;;;;;;19.38;7.93;;;;;;;3.50;89.38;101812.09;5046011;28;20067;-45
2023/11/25 01:03:08;;;;;;;24.70;9.40;;;;;;;3.53;89.50;101811.56;5047994;28;20056;-45
2023/11/25 01:05:35;;;;;;;26.42;9.10;;;;;;;3.52;89.17;101799.78;5053028;28;20048;-46
2023/11/25 01:08:03;;;;;;;23.88;8.88;;;;;;;3.48;89.08;101787.75;5052847;28;20053;-46
2023/11/25 01:10:30;;;;;;;20.25;8.55;;;;;;;3.43;89.46;101784.19;5052506;28;20455;-48
2023/11/25 01:12:57;;;;;;;31.08;7.97;;;;;;;3.41;89.59;101789.94;5052325;28;20049;-45
2023/11/25 01:15:24;;;;;;;17.67;8.15;;;;;;;3.45;89.43;101781.97;5052825;28;20495;-44
2023/11/25 01:17:52;;;;;;;16.45;8.15;;;;;;;3.44;89.59;101774.88;5052761;28;20073;-46
2023/11/25 01:20:21;;;;;;;15.60;7.32;;;;;;;3.38;89.64;101776.78;5045207;28;20502;-48
2023/11/25 01:22:49;;;;;;;20.17;8.70;;;;;;;3.36;89.87;101767.22;5047349;28;20052;-47
2023/11/25 01:25:17;;;;;;;17.17;7.25;;;;;;;3.37;90.25;101766.91;5051504;28;20037;-47
2023/11/25 01:27:44;;;;;;;23.88;9.43;;;;;;;3.41;90.09;101765.31;5052887;28;20121;-47
2023/11/25 01:30:12;;;;;;;20.33;8.95;;;;;;;3.43;90.06;101767.75;5053281;28;20486;-47
2023/11/25 01:32:39;;;;;;;16.48;7.72;;;;;;;3.42;89.98;101771.56;5053034;28;20053;-50
2023/11/25 01:35:06;;;;;;;25.80;9.07;;;;;;;3.37;89.88;101771.56;5053516;28;20052;-46
2023/11/25 01:37:34;;;;;;;27.30;13.90;;;;;;;3.26;90.04;101768.00;5052893;28;20515;-47
2023/11/25 01:40:05;;;;;;;20.15;8.38;;;;;;;3.21;90.33;101750.75;5035161;28;20045;-45
2023/11/25 01:42:32;;;;;;;19.98;8.10;;;;;;;3.20;90.58;101762.81;5052867;28;20056;-46
2023/11/25 01:45:00;;;;;;;22.27;8.63;;;;;;;3.23;90.42;101757.59;5053173;28;20053;-49
2023/11/25 01:47:27;;;;;;;25.10;9.77;;;;;;;3.22;90.20;101766.09;5052030;28;20040;-48
2023/11/25 01:49:55;;;;;;;19.20;8.57;;;;;;;3.17;90.36;101760.59;5052338;28;20049;-46
2023/11/25 01:52:24;;;;;;;22.40;8.73;;;;;;;3.16;90.60;101767.16;5049806;28;20514;-46
2023/11/25 01:54:53;;;;;;;21.27;9.30;;;;;;;3.16;90.38;101764.44;5053207;28;20041;-48
2023/11/25 01:57:20;;;;;;;18.75;8.70;;;;;;;3.09;90.69;101772.91;5052904;28;20049;-47
2023/11/25 01:59:48;;;;;;;22.77;8.57;;;;;;;3.10;90.91;101757.31;5053007;28;20052;-45
2023/11/25 02:02:18;;;;;;;23.80;9.65;;;;;;;3.00;90.74;101753.47;5052381;28;20407;-47
2023/11/25 02:04:45;;;;;;;20.40;8.73;;;;;;;2.94;91.03;101756.44;5052270;28;20041;-45
2023/11/25 02:07:13;;;;;;;20.83;8.73;;;;;;;2.91;91.16;101749.59;5052673;28;20037;-46
2023/11/25 02:09:40;;;;;;;14.70;8.15;;;;;;;2.90;91.19;101742.50;5052753;28;20055;-46
2023/11/25 02:12:07;;;;;;;22.60;9.18;;;;;;;2.90;91.43;101747.97;5051985;28;20045;-46
2023/11/25 02:14:35;;;;;;;29.60;10.23;;;;;;;2.84;91.74;101745.47;5050749;28;20546;-47
2023/11/25 02:17:02;;;;;;;19.45;9.00;;;;;;;2.81;91.79;101744.09;5048021;28;20506;-46
2023/11/25 02:19:30;;;;;;;20.35;10.60;;;;;;;2.89;91.72;101746.31;5043003;28;20041;-45
2023/11/25 02:21:58;;;;;;;26.42;11.13;;;;;;;2.91;91.42;101749.59;5047751;28;20633;-48
2023/11/25 02:24:26;;;;;;;30.95;9.50;;;;;;;2.94;91.75;101743.59;5049978;28;20048;-46
2023/11/25 02:27:01;;;;;;;25.65;10.38;;;;;;;2.96;91.21;101737.88;5049296;28;20055;-47
2023/11/25 02:29:31;;;;;;;19.33;8.80;;;;;;;2.95;91.08;101726.09;5049266;28;20041;-51
2023/11/25 02:31:59;;;;;;;21.75;8.85;;;;;;;2.92;91.18;101734.84;5035967;28;20859;-45
2023/11/25 02:34:26;;;;;;;26.85;10.63;;;;;;;2.90;91.16;101728.81;5049281;28;20057;-46
2023/11/25 02:36:54;;;;;;;19.33;8.20;;;;;;;2.89;91.26;101726.34;5048155;28;20053;-47
2023/11/25 02:39:22;;;;;;;26.10;9.30;;;;;;;2.80;91.24;101717.88;5049103;28;20045;-46
2023/11/25 02:41:52;;;;;;;20.90;9.10;;;;;;;2.74;91.16;101716.22;5049391;28;20059;-45
2023/11/25 02:44:21;;;;;;;22.85;10.70;;;;;;;2.71;91.53;101716.75;5048596;28;20052;-51
2023/11/25 02:46:49;;;;;;;22.88;11.18;;;;;;;2.71;91.92;101719.47;5049145;28;20049;-46
2023/11/25 02:49:17;;;;;;;19.50;9.45;;;;;;;2.65;91.70;101720.53;5048792;28;20049;-45
2023/11/25 02:51:54;;;;;;;19.00;9.10;;;;;;;2.61;92.12;101708.50;5049396;28;20071;-46
2023/11/25 02:54:22;;;;;;;19.77;8.52;;;;;;;2.51;92.18;101705.75;5048418;28;20045;-45
2023/11/25 02:56:52;;;;;;;15.60;8.32;;;;;;;2.44;91.95;101699.69;5047965;28;20052;-45
2023/11/25 02:59:20;;;;;;;24.55;9.95;;;;;;;2.37;92.77;101699.13;5047381;28;20041;-48
2023/11/25 03:01:48;;;;;;;23.95;9.35;;;;;;;2.34;92.75;101699.66;5150344;22;20052;-50
2023/11/25 03:04:19;;;;;;;24.80;10.65;;;;;;;2.37;93.07;101691.75;5049720;28;20041;-46
2023/11/25 03:06:50;;;;;;;23.38;9.57;;;;;;;2.35;92.65;101687.66;5059002;28;20586;-44
2023/11/25 03:09:18;;;;;;;22.13;8.43;;;;;;;2.34;92.82;101688.72;5058774;28;20048;-48
2023/11/25 03:11:46;;;;;;;22.40;8.38;;;;;;;2.31;92.96;101687.38;5054929;28;20049;-45
2023/11/25 03:14:15;;;;;;;25.88;11.13;;;;;;;2.31;92.85;101678.34;5053387;28;20049;-46
2023/11/25 03:16:43;;;;;;;16.50;9.23;;;;;;;2.23;92.66;101681.59;5057487;28;20390;-46
2023/11/25 03:19:10;;;;;;;25.20;10.65;;;;;;;2.19;93.28;101672.28;5043006;28;20048;-45
2023/11/25 03:21:38;;;;;;;23.17;9.38;;;;;;;2.12;93.29;101669.78;5055540;28;20041;-45
2023/11/25 03:24:07;;;;;;;36.00;14.23;;;;;;;2.16;93.40;101672.81;5053563;28;20049;-45
2023/11/25 03:26:35;;;;;;;23.17;12.70;;;;;;;2.19;93.33;101680.47;5052216;28;20052;-45
2023/11/25 03:29:05;;;;;;;27.23;13.18;;;;;;;2.15;93.43;101673.91;5058817;28;20040;-44
2023/11/25 03:31:33;;;;;;;30.80;13.80;;;;;;;2.14;93.26;101664.06;5054650;28;20063;-45
2023/11/25 03:34:00;;;;;;;36.35;15.13;;;;;;;2.14;93.30;101672.28;5058027;28;20072;-48
2023/11/25 03:36:27;;;;;;;35.38;14.75;;;;;;;2.22;93.08;101682.69;5058154;28;20051;-46
2023/11/25 03:38:55;;;;;;;30.15;15.05;;;;;;;2.25;93.03;101680.22;5050305;28;20045;-47
2023/11/25 03:41:23;;;;;;;30.00;12.63;;;;;;;2.27;93.03;101674.50;5052498;28;20045;-46
2023/11/25 03:43:50;;;;;;;20.10;10.75;;;;;;;2.30;92.85;101679.44;5061206;28;20048;-44
2023/11/25 03:46:17;;;;;;;27.98;11.00;;;;;;;2.29;92.70;101680.53;5063320;28;20045;-45
2023/11/25 03:48:45;;;;;;;34.17;10.63;;;;;;;2.22;92.26;101671.75;5054162;28;20037;-44
2023/11/25 03:51:12;;;;;;;21.63;11.13;;;;;;;2.14;92.62;101667.63;5053008;28;20037;-47
2023/11/25 03:53:39;;;;;;;30.92;9.82;;;;;;;2.14;92.71;101672.28;5056651;28;20048;-48
2023/11/25 03:56:07;;;;;;;21.95;9.50;;;;;;;2.12;92.91;101674.47;5057369;28;20059;-47
2023/11/25 03:58:35;;;;;;;24.15;9.95;;;;;;;2.13;93.12;101670.63;5058876;28;20051;-46
2023/11/25 04:01:03;;;;;;;22.02;8.82;;;;;;;2.10;92.87;101674.69;5056400;28;20065;-45
2023/11/25 04:03:30;;;;;;;20.17;9.65;;;;;;;2.04;93.12;101662.09;5056459;28;20040;-47
2023/11/25 04:05:57;;;;;;;20.80;8.52;;;;;;;2.06;93.42;101654.50;5057852;28;20048;-45
2023/11/25 04:08:25;;;;;;;15.07;8.90;;;;;;;2.04;93.25;101644.91;5053479;28;20049;-47
2023/11/25 04:10:52;;;;;;;18.80;8.13;;;;;;;2.02;93.51;101647.91;5056395;28;20044;-45
2023/11/25 04:13:20;;;;;;;20.80;9.55;;;;;;;2.01;93.65;101656.38;5055130;28;20402;-45
2023/11/25 04:15:47;;;;;;;23.42;9.15;;;;;;;2.01;93.43;101650.91;5056321;28;20494;-45
2023/11/25 04:18:14;;;;;;;24.75;10.35;;;;;;;2.05;93.73;101652.84;5057405;28;20045;-46
2023/11/25 04:20:43;;;;;;;22.80;8.10;;;;;;;2.05;93.70;101652.84;5047769;28;20406;-47
2023/11/25 04:23:14;;;;;;;19.55;8.80;;;;;;;2.01;93.56;101640.00;5060815;28;20063;-47
2023/11/25 04:25:43;;;;;;;27.27;11.35;;;;;;;1.98;93.52;101641.34;5045287;28;20410;-44
2023/11/25 04:28:11;;;;;;;18.77;8.07;;;;;;;1.95;93.54;101646.50;5060025;28;20493;-45
2023/11/25 04:30:40;;;;;;;15.52;8.25;;;;;;;1.95;94.05;101655.53;5060758;28;20048;-44
2023/11/25 04:33:11;;;;;;;16.63;8.60;;;;;;;1.98;94.08;101651.44;5049406;28;20044;-46
2023/11/25 04:35:38;;;;;;;17.95;8.52;;;;;;;1.99;93.87;101656.63;5060150;28;20049;-45
2023/11/25 04:38:07;;;;;;;18.67;8.45;;;;;;;1.98;94.06;101656.91;5055210;28;20044;-46
2023/11/25 04:40:34;;;;;;;21.08;9.77;;;;;;;1.96;93.84;101654.41;5057538;28;20045;-44
2023/11/25 04:43:01;;;;;;;16.73;7.47;;;;;;;2.00;94.00;101657.44;5048273;28;20581;-45
2023/11/25 04:45:29;;;;;;;13.27;8.30;;;;;;;1.93;93.54;101648.69;5052788;28;20041;-45
2023/11/25 04:47:56;;;;;;;19.60;10.00;;;;;;;1.84;93.86;101648.38;5053756;28;20045;-46
2023/11/25 04:50:27;;;;;;;19.45;8.98;;;;;;;1.82;94.12;101659.56;5054952;28;20041;-49
2023/11/25 04:52:54;;;;;;;22.88;9.07;;;;;;;1.87;94.41;101655.19;5044819;28;20044;-46
2023/11/25 04:55:25;;;;;;;17.23;8.50;;;;;;;1.79;94.24;101653.81;5042642;28;20049;-44
2023/11/25 04:57:54;;;;;;;15.55;7.53;;;;;;;1.76;94.22;101649.69;5045742;28;20729;-47
2023/11/25 05:00:21;;;;;;;25.58;9.82;;;;;;;1.71;94.56;101651.56;5047080;28;20037;-44
2023/11/25 05:02:49;;;;;;;15.30;8.45;;;;;;;1.74;94.66;101646.41;5046396;28;20399;-49
2023/11/25 05:05:17;;;;;;;20.40;7.90;;;;;;;1.71;94.54;101657.84;5047423;28;20075;-48
2023/11/25 05:07:44;;;;;;;17.75;8.15;;;;;;;1.76;94.67;101663.34;5046362;28;20048;-46
2023/11/25 05:10:12;;;;;;;17.80;8.45;;;;;;;1.72;94.58;101655.97;5047285;28;20056;-46
2023/11/25 05:12:41;;;;;;;18.50;8.93;;;;;;;1.69;94.75;101643.66;5046705;28;20870;-46
2023/11/25 05:15:10;;;;;;;25.10;8.43;;;;;;;1.67;94.44;101645.81;5044999;28;20033;-45
2023/11/25 05:17:38;;;;;;;19.77;7.75;;;;;;;1.65;94.60;101650.72;5045960;28;20049;-45
2023/11/25 05:20:09;;;;;;;17.88;7.72;;;;;;;1.68;94.65;101650.19;5045022;28;20064;-46
2023/11/25 05:22:37;;;;;;;17.03;7.50;;;;;;;1.65;94.63;101642.53;5043548;28;20037;-48
2023/11/25 05:25:05;;;;;;;19.33;6.97;;;;;;;1.63;95.11;101652.91;5045834;28;20048;-45
2023/11/25 05:27:33;;;;;;;18.00;7.40;;;;;;;1.61;94.80;101649.63;5046238;28;20680;-45
2023/11/25 05:30:01;;;;;;;31.30;9.02;;;;;;;1.68;95.29;101650.19;5047269;28;20059;-46
2023/11/25 05:32:28;;;;;;;19.90;9.05;;;;;;;1.74;95.10;101643.69;5046429;28;20064;-43
2023/11/25 05:34:56;;;;;;;16.90;7.82;;;;;;;1.73;95.03;101639.31;5045094;28;20057;-46
2023/11/25 05:37:23;;;;;;;15.18;7.35;;;;;;;1.72;94.94;101632.19;5046773;28;20522;-45
2023/11/25 05:39:50;;;;;;;18.23;7.57;;;;;;;1.71;95.20;101636.03;5045956;28;20402;-44
2023/11/25 05:42:27;;;;;;;16.02;7.07;;;;;;;1.77;95.00;101629.47;5046684;28;20510;-46
2023/11/25 05:44:55;;;;;;;19.10;8.35;;;;;;;1.74;94.90;101629.22;5040943;28;20585;-46
2023/11/25 05:47:24;;;;;;;17.65;8.60;;;;;;;1.68;94.98;101614.72;5046261;28;20036;-44
2023/11/25 05:49:51;;;;;;;19.50;7.82;;;;;;;1.65;94.94;101631.59;5046169;28;20045;-45
2023/11/25 05:52:19;;;;;;;16.48;6.95;;;;;;;1.73;94.92;101628.38;5049142;28;20797;-45
2023/11/25 05:54:46;;;;;;;20.20;7.63;;;;;;;1.76;94.89;101616.09;5049790;28;20061;-45
2023/11/25 05:57:14;;;;;;;20.90;8.05;;;;;;;1.78;94.50;101616.66;5050273;28;20041;-45
2023/11/25 05:59:43;;;;;;;20.80;7.97;;;;;;;1.80;94.59;101619.97;5050371;28;20053;-48
2023/11/25 06:02:10;;;;;;;16.10;7.10;;;;;;;1.80;94.59;101607.13;5045599;28;20057;-46
2023/11/25 06:04:37;;;;;;;17.30;8.23;;;;;;;1.75;94.67;101606.25;5049278;28;20045;-45
2023/11/25 06:07:05;;;;;;;14.65;8.27;;;;;;;1.72;94.92;101604.88;5050328;28;20048;-47
2023/11/25 06:09:32;;;;;;;19.00;8.50;;;;;;;1.70;94.48;101601.59;5049974;28;20513;-48
2023/11/25 06:11:59;;;;;;;19.55;9.38;;;;;;;1.70;95.12;101598.06;5049548;28;20680;-45
2023/11/25 06:14:28;;;;;;;15.52;7.50;;;;;;;1.71;95.11;101596.97;5050021;28;20053;-46
2023/11/25 06:16:56;;;;;;;12.50;6.88;;;;;;;1.72;95.51;101593.97;5050357;28;20532;-46
2023/11/25 06:19:24;;;;;;;20.40;8.68;;;;;;;1.69;95.35;101594.53;5049098;28;20041;-44
2023/11/25 06:21:54;;;;;;;13.32;7.55;;;;;;;1.66;95.46;101591.50;5045419;28;20048;-46
2023/11/25 06:24:22;;;;;;;18.08;7.57;;;;;;;1.64;95.37;101582.75;5046606;28;20045;-47
2023/11/25 06:26:50;;;;;;;21.92;8.98;;;;;;;1.62;95.43;101584.91;5056564;28;20044;-45
2023/11/25 06:29:17;;;;;;;11.63;7.32;;;;;;;1.58;95.54;101581.91;5056166;28;20403;-48
2023/11/25 06:31:46;;;;;;;15.50;7.75;;;;;;;1.56;95.60;101578.59;5050150;28;20135;-45
2023/11/25 06:34:13;;;;;;;17.90;8.77;;;;;;;1.57;95.72;101573.97;5052685;28;20053;-47
2023/11/25 06:36:44;;;;;;;18.30;7.07;;;;;;;1.62;95.84;101572.09;5049453;28;20136;-45
2023/11/25 06:39:14;;;;;;;16.50;7.50;;;;;;;1.63;95.75;101579.22;5050254;28;20051;-47
2023/11/25 06:41:46;;;;;;;14.25;7.72;;;;;;;1.57;95.53;101574.81;5056377;28;20524;-45
2023/11/25 06:44:14;;;;;;;21.65;8.32;;;;;;;1.57;95.75;101579.44;5053621;28;20060;-47
2023/11/25 06:46:41;;;;;;;20.83;8.27;;;;;;;1.51;96.02;101575.84;5053700;28;20076;-45
2023/11/25 06:49:09;;;;;;;23.67;8.65;;;;;;;1.51;95.88;101581.31;5053751;28;20064;-45
2023/11/25 06:51:36;;;;;;;17.85;7.50;;;;;;;1.52;96.10;101571.22;5050610;28;20509;-45
2023/11/25 06:54:03;;;;;;;19.92;8.20;;;;;;;1.47;96.14;101563.00;5058224;28;20525;-44
2023/11/25 06:56:33;;;;;;;14.40;8.45;;;;;;;1.45;96.30;101566.03;5056009;28;20041;-45
2023/11/25 06:59:01;;;;;;;21.88;9.00;;;;;;;1.46;96.09;101570.38;5057757;28;20513;-46
2023/11/25 07:01:28;;;;;;;20.38;9.02;;;;;;;1.47;96.21;101569.28;5052663;28;20061;-45
2023/11/25 07:03:56;;;;;;;23.13;7.88;;;;;;;1.50;96.17;101568.78;5048690;28;20053;-45
2023/11/25 07:06:23;;;;;;;19.27;8.82;;;;;;;1.53;96.13;101565.50;5050563;28;20037;-44
2023/11/25 07:08:52;;;;;;;18.60;7.80;;;;;;;1.52;96.08;101568.50;5059778;28;20045;-45
2023/11/25 07:11:23;;;;;;;17.27;7.35;;;;;;;1.50;95.84;101574.22;5055014;28;20053;-46
2023/11/25 07:13:50;;;;;;;13.88;7.30;;;;;;;1.50;96.25;101574.22;5049258;28;20049;-46
2023/11/25 07:16:17;;;;;;;14.27;7.15;;;;;;;1.50;96.25;101570.66;5049463;28;20045;-46
2023/11/25 07:18:46;;;;;;;23.05;9.55;;;;;;;1.49;95.98;101566.28;5048328;28;20727;-45
2023/11/25 07:21:13;;;;;;;18.60;7.20;;;;;;;1.51;96.00;101559.47;5053416;28;20045;-45
2023/11/25 07:23:42;;;;;;;15.23;7.70;;;;;;;1.50;96.26;101555.13;5063100;28;20057;-45
2023/11/25 07:26:13;;;;;;;18.20;7.13;;;;;;;1.49;96.01;101550.75;5041465;28;20056;-45
2023/11/25 07:28:42;;;;;;;19.10;10.02;;;;;;;1.48;96.28;101551.03;5059811;28;20500;-46
2023/11/25 07:31:11;;;;;;;13.88;5.47;;;;;;;1.46;95.95;101544.97;5048505;28;20049;-47
2023/11/25 07:33:38;;;;;;;17.00;6.20;;;;;;;1.49;96.41;101558.09;5049058;28;20059;-47
2023/11/25 07:36:06;;;;;;;15.02;6.03;;;;;;;1.52;96.12;101561.13;5048429;28;20053;-45
2023/11/25 07:38:36;;;;;;;18.13;6.25;;;;;;;1.50;96.28;101559.75;5048122;28;20041;-45
2023/11/25 07:41:03;;;;;;;11.88;5.68;;;;;;;1.48;96.08;101553.75;5049821;28;20079;-45
2023/11/25 07:43:31;;;;;;;14.43;6.85;;;;;;;1.50;96.20;101562.50;5045977;28;20041;-45
2023/11/25 07:46:01;;;;;;;11.63;5.95;;;;;;;1.57;96.47;101554.88;5048225;28;20063;-46
2023/11/25 07:48:29;;;;;;;19.88;6.63;;;;;;;1.59;96.13;101556.25;5048590;28;20622;-50
2023/11/25 07:50:58;;;;;;;14.13;7.85;;;;;;;1.63;96.09;101557.38;5052571;28;20053;-46
2023/11/25 07:53:25;;;;;;;19.27;7.68;;;;;;;1.63;96.14;101557.38;5047694;28;20040;-44
2023/11/25 07:55:52;;;;;;;21.33;8.70;;;;;;;1.58;96.02;101560.06;5046109;28;20540;-45
2023/11/25 07:58:22;;;;;;;10.98;6.82;;;;;;;1.58;96.05;101556.53;5046531;28;20049;-46
2023/11/25 08:00:50;;;;;;;23.48;6.20;;;;;;;1.58;95.79;101560.06;5041463;28;20045;-46
2023/11/25 08:03:20;;;;;;;15.48;6.72;;;;;;;1.56;95.78;101553.25;5034557;28;20680;-43
2023/11/25 08:05:47;;;;;;;17.77;9.10;;;;;;;1.56;95.85;101551.31;5028228;28;20049;-47
2023/11/25 08:08:15;;;;;;;16.10;7.03;;;;;;;1.58;96.11;101551.06;5027322;28;20056;-45
2023/11/25 08:10:42;;;;;;;18.05;7.35;;;;;;;1.57;95.91;101547.50;5038698;28;20454;-44
2023/11/25 08:13:10;;;;;;;17.33;7.85;;;;;;;1.56;96.10;101556.78;5039168;28;20406;-45
2023/11/25 08:15:37;;;;;;;22.30;8.90;;;;;;;1.55;95.92;101559.78;5046653;28;20048;-47
2023/11/25 08:18:05;;;;;;;20.25;8.88;;;;;;;1.53;96.30;101551.88;5034989;28;20048;-46
2023/11/25 08:20:33;;;;;;;18.52;9.88;;;;;;;1.56;96.54;101554.03;5045655;28;20048;-46
2023/11/25 08:23:00;;;;;;;26.38;10.13;;;;;;;1.61;96.64;101556.00;5042199;28;20045;-45
2023/11/25 08:25:28;;;;;;;21.85;10.35;;;;;;;1.63;96.02;101559.28;5033245;28;20731;-48
2023/11/25 08:27:56;;;;;;;19.35;10.85;;;;;;;1.59;96.09;101567.16;5032204;28;20364;-47
2023/11/25 08:30:23;;;;;;;22.23;11.23;;;;;;;1.61;96.66;101564.19;5033148;28;20514;-46
2023/11/25 08:32:50;;;;;;;17.40;9.48;;;;;;;1.64;96.60;101556.25;5029545;28;20687;-44
2023/11/25 08:35:17;;;;;;;17.23;9.18;;;;;;;1.68;96.57;101553.84;5041167;28;20269;-45
2023/11/25 08:37:47;;;;;;;21.23;11.38;;;;;;;1.68;96.66;101554.66;5046243;28;20410;-45
2023/11/25 08:40:16;;;;;;;19.10;8.65;;;;;;;1.69;96.71;101559.03;5046864;28;20513;-47
2023/11/25 08:42:45;;;;;;;20.98;8.52;;;;;;;1.75;96.98;101555.22;5045378;28;20498;-44
2023/11/25 08:45:13;;;;;;;14.15;7.13;;;;;;;1.74;96.62;101553.59;5047417;28;20036;-44
2023/11/25 08:47:42;;;;;;;21.88;8.63;;;;;;;1.72;96.81;101544.84;5051739;28;20048;-46
2023/11/25 08:50:15;;;;;;;17.00;7.88;;;;;;;1.76;96.63;101547.88;5056473;28;20045;-47
2023/11/25 08:52:44;;;;;;;15.05;7.85;;;;;;;1.80;97.07;101541.59;5047186;28;20067;-45
2023/11/25 08:55:17;;;;;;;12.48;8.77;;;;;;;1.88;96.88;101542.97;5048058;28;20497;-46
2023/11/25 08:57:45;;;;;;;15.13;8.50;;;;;;;1.89;96.64;101547.38;5051555;28;20057;-50
2023/11/25 09:00:18;;;;;;;21.00;8.95;;;;;;;1.95;97.03;101542.75;5048756;28;20052;-43
2023/11/25 09:02:48;;;;;;;17.33;8.80;;;;;;;2.00;96.64;101546.31;5051081;28;20052;-45
2023/11/25 09:05:21;;;;;;;17.85;8.38;;;;;;;2.03;96.96;101547.69;5050977;28;20071;-47
2023/11/25 09:07:54;;;;;;;19.38;7.97;;;;;;;2.07;96.54;101546.03;5056861;28;20049;-45
2023/11/25 09:10:24;;;;;;;17.83;9.45;;;;;;;2.10;96.76;101556.44;5042459;28;20052;-46
2023/11/25 09:12:53;;;;;;;23.95;10.05;;;;;;;2.11;96.79;101552.63;5046981;28;20057;-47
2023/11/25 09:15:21;;;;;;;13.90;8.32;;;;;;;2.16;96.76;101556.19;5046587;28;20143;-48
2023/11/25 09:17:48;;;;;;;18.65;9.95;;;;;;;2.18;96.84;101561.38;5046114;28;20053;-50
2023/11/25 09:20:16;;;;;;;29.83;10.68;;;;;;;2.18;96.67;101553.19;5045047;28;20053;-45
2023/11/25 09:22:44;;;;;;;16.13;8.38;;;;;;;2.15;96.41;101557.25;5042758;28;20054;-46
2023/11/25 09:25:13;;;;;;;30.55;11.40;;;;;;;2.18;96.55;101561.38;5045210;28;20056;-47
2023/11/25 09:27:46;;;;;;;20.52;9.18;;;;;;;2.24;96.80;101552.09;5050742;28;20053;-45
2023/11/25 09:30:14;;;;;;;16.58;8.15;;;;;;;2.27;96.81;101563.31;5049272;28;20052;-45
2023/11/25 09:32:41;;;;;;;19.25;8.80;;;;;;;2.27;96.70;101551.56;5048916;28;20041;-48
2023/11/25 09:35:12;;;;;;;21.88;8.77;;;;;;;2.29;96.77;101552.94;5048470;28;20048;-47
2023/11/25 09:37:42;;;;;;;19.02;8.57;;;;;;;2.30;96.84;101553.75;5048981;28;20053;-46
2023/11/25 09:40:14;;;;;;;22.65;8.60;;;;;;;2.28;96.71;101545.81;5049031;28;20037;-47
2023/11/25 09:42:43;;;;;;;21.88;9.93;;;;;;;2.27;96.46;101546.94;5038694;28;20789;-45
2023/11/25 09:45:11;;;;;;;23.90;9.20;;;;;;;2.28;96.37;101543.09;5049813;28;20409;-46
2023/11/25 09:47:43;;;;;;;19.17;10.13;;;;;;;2.28;96.59;101542.25;5050466;28;20426;-44
2023/11/25 09:50:12;;;;;;;25.30;9.70;;;;;;;2.28;96.76;101548.56;5049827;28;20083;-45
2023/11/25 09:52:51;;;;;;;24.38;10.23;;;;;;;2.29;96.42;101549.38;5050311;28;20053;-45
2023/11/25 09:55:22;;;;;;;15.60;7.95;;;;;;;2.29;96.75;101542.00;5047491;28;20759;-47
2023/11/25 09:57:58;;;;;;;26.95;9.85;;;;;;;2.29;96.79;101539.28;5050342;28;20045;-48
2023/11/25 10:00:27;;;;;;;18.33;7.90;;;;;;;2.32;96.65;101535.19;5050880;28;20045;-47
2023/11/25 10:02:57;;;;;;;14.40;8.15;;;;;;;2.35;96.54;101543.66;5048477;28;20041;-44
2023/11/25 10:05:26;;;;;;;17.38;7.55;;;;;;;2.39;96.93;101543.91;5049674;28;20064;-47
2023/11/25 10:07:54;;;;;;;12.85;6.65;;;;;;;2.42;96.57;101540.66;5049338;28;20048;-45
2023/11/25 10:10:23;;;;;;;12.52;6.03;;;;;;;2.43;96.60;101536.84;5050040;28;20045;-44
2023/11/25 10:12:52;;;;;;;22.35;6.15;;;;;;;2.46;96.47;101539.03;5049328;28;20056;-46
2023/11/25 10:15:24;;;;;;;13.13;6.88;;;;;;;2.47;96.76;101540.66;5049635;28;20067;-48
2023/11/25 10:17:54;;;;;;;13.93;5.88;;;;;;;2.50;96.71;101540.13;5047997;28;20679;-43
2023/11/25 10:20:22;;;;;;;19.27;6.90;;;;;;;2.53;96.47;101536.84;5049468;28;20053;-43
2023/11/25 10:22:53;;;;;;;16.35;6.20;;;;;;;2.56;96.79;101544.50;5048744;28;20053;-43
2023/11/25 10:25:21;;;;;;;15.13;5.88;;;;;;;2.61;96.63;101543.69;5049918;28;20044;-44
2023/11/25 10:27:54;;;;;;;15.40;7.75;;;;;;;2.64;96.81;101545.88;5042309;28;20041;-44
2023/11/25 10:30:23;;;;;;;17.85;6.53;;;;;;;2.67;96.96;101540.69;5046583;28;20053;-44
2023/11/25 10:32:52;;;;;;;12.45;6.15;;;;;;;2.70;96.86;101551.03;5049568;28;20094;-46
2023/11/25 10:35:21;;;;;;;16.52;5.30;;;;;;;2.72;96.94;101540.69;5046642;28;20044;-43
2023/11/25 10:37:48;;;;;;;12.70;5.53;;;;;;;2.76;96.70;101524.53;5049349;28;20524;-45
2023/11/25 10:40:16;;;;;;;12.30;5.20;;;;;;;2.78;96.66;101528.63;5049819;28;20041;-45
2023/11/25 10:42:45;;;;;;;15.55;7.03;;;;;;;2.81;97.19;101536.28;5049452;28;20052;-45
2023/11/25 10:45:17;;;;;;;22.15;5.72;;;;;;;2.85;96.84;101531.94;5035911;28;20056;-45
2023/11/25 10:47:45;;;;;;;17.07;5.80;;;;;;;2.91;97.08;101525.34;5048056;28;20044;-45
2023/11/25 10:50:15;;;;;;;12.45;5.07;;;;;;;2.98;96.80;101523.16;5049528;28;20045;-46
2023/11/25 10:52:44;;;;;;;14.98;7.20;;;;;;;3.03;96.50;101512.19;5049186;28;20049;-44
2023/11/25 10:55:12;;;;;;;19.35;6.10;;;;;;;3.11;96.88;101518.19;5049428;28;20045;-44
2023/11/25 10:57:40;;;;;;;16.42;6.13;;;;;;;3.20;96.52;101522.03;5046591;28;20041;-44
2023/11/25 11:00:12;;;;;;;12.82;4.80;;;;;;;3.28;96.63;101510.50;5047182;28;20052;-48
2023/11/25 11:02:50;;;;;;;11.82;5.78;;;;;;;3.32;96.37;101506.94;5048622;28;20061;-44
2023/11/25 11:05:29;;;;;;;16.17;5.20;;;;;;;3.40;96.53;101513.75;5048559;28;20614;-43
2023/11/25 11:08:02;;;;;;;14.95;5.35;;;;;;;3.46;96.50;101512.63;5052575;28;20511;-43
2023/11/25 11:10:49;;;;;;;13.07;4.90;;;;;;;3.51;96.13;101501.66;5054274;28;20052;-49
2023/11/25 11:13:24;;;;;;;12.40;4.82;;;;;;;3.54;96.23;101507.41;5054160;28;20059;-46
2023/11/25 11:15:54;;;;;;;17.25;5.60;;;;;;;3.57;96.62;101506.81;5052366;28;20052;-43
2023/11/25 11:18:35;;;;;;;14.23;5.03;;;;;;;3.61;96.46;101501.63;5052172;28;20051;-45
2023/11/25 11:21:06;;;;;;;15.50;4.60;;;;;;;3.65;96.42;101505.44;5046222;28;20041;-46
2023/11/25 11:23:37;;;;;;;15.35;4.50;;;;;;;3.69;96.69;101503.78;5042155;28;20073;-43
2023/11/25 11:26:31;;;;;;;17.73;5.13;;;;;;;3.72;96.43;101497.75;5047804;28;20049;-42
2023/11/25 11:29:20;;;;;;;10.25;5.70;;;;;;;3.77;96.36;101497.72;5046346;28;20063;-45
2023/11/25 11:31:59;;;;;;;12.02;5.25;;;;;;;3.81;96.52;101490.59;5041279;28;20045;-44